Terminal Aerodrome Forecast
Issued by NWS Corpus Christi, TX

Home | Current Version | Previous Version | Text Only | Print | Product List | Glossary On
Versions: 1 2 3 4 5 6 7 8 9 10 11 12 13 14 15
000
FTUS44 KCRP 010500
TAFCRP
TAF
KCRP 010531Z 0106/0206 35010KT 2SM -RA BR OVC004
      TEMPO 0106/0109 1SM -RA BR OVC003
     FM010900 35006KT 1SM -DZ BR OVC003
      TEMPO 0110/0114 1/2SM FG
     FM011800 36007KT 3SM -DZ OVC005
     FM012100 01007KT 6SM -DZ OVC008
     FM020000 03006KT 4SM -DZ BR OVC004=

USA.gov is the U.S. government's official web portal to all federal, state and local government web resources and services.